createdAt,value
2022-07-30T00:01:29.403Z,23.27
2022-07-30T00:04:32.873Z,22.23
2022-07-30T00:07:36.960Z,26.73
2022-07-30T00:10:40.636Z,28.07
2022-07-30T00:13:43.617Z,25.20
2022-07-30T00:16:46.353Z,17.47
2022-07-30T00:19:50.045Z,21.17
2022-07-30T00:22:55.122Z,18.60
2022-07-30T00:25:57.816Z,20.90
2022-07-30T00:29:00.564Z,17.83
2022-07-30T00:32:03.274Z,21.30
2022-07-30T00:35:07.255Z,21.50
2022-07-30T00:38:11.315Z,22.70
2022-07-30T00:41:15.455Z,20.87
2022-07-30T00:44:18.489Z,19.77
2022-07-30T00:47:22.546Z,22.10
2022-07-30T00:50:25.286Z,26.90
2022-07-30T00:53:29.318Z,24.63
2022-07-30T00:56:32.712Z,21.30
2022-07-30T00:59:36.052Z,26.07
2022-07-30T01:02:38.854Z,22.80
2022-07-30T01:05:42.702Z,23.73
2022-07-30T01:08:47.348Z,30.97
2022-07-30T01:11:50.228Z,28.20
2022-07-30T01:14:55.179Z,26.03
2022-07-30T01:18:01.038Z,24.63
2022-07-30T01:21:10.651Z,20.33
2022-07-30T01:24:24.199Z,20.47
2022-07-30T01:27:31.087Z,23.73
2022-07-30T01:30:36.759Z,26.47
2022-07-30T01:33:44.721Z,29.50
2022-07-30T01:36:48.425Z,28.43
2022-07-30T01:39:53.141Z,25.97
2022-07-30T01:42:59.959Z,25.13
2022-07-30T01:46:04.625Z,23.40
2022-07-30T01:49:09.371Z,27.57
2022-07-30T01:52:13.210Z,32.37
2022-07-30T01:55:19.559Z,35.43
2022-07-30T01:58:27.527Z,31.83
2022-07-30T02:01:30.337Z,35.17
2022-07-30T02:04:33.301Z,34.90
2022-07-30T02:07:42.323Z,38.73
2022-07-30T02:10:50.718Z,29.37
2022-07-30T02:13:58.136Z,28.77
2022-07-30T02:17:04.116Z,32.07
2022-07-30T02:20:10.578Z,30.73
2022-07-30T02:23:17.207Z,29.90
2022-07-30T02:26:23.901Z,31.03
2022-07-30T02:29:34.071Z,33.67
2022-07-30T02:32:40.423Z,30.63
2022-07-30T02:35:50.716Z,32.50
2022-07-30T02:38:54.348Z,25.33
2022-07-30T02:41:57.975Z,26.63
2022-07-30T02:45:03.228Z,23.67
2022-07-30T02:48:08.739Z,26.97
2022-07-30T02:51:13.425Z,24.70
2022-07-30T02:54:18.885Z,25.53
2022-07-30T02:57:22.436Z,24.73
2022-07-30T03:00:28.155Z,27.40
2022-07-30T03:03:32.166Z,25.30
2022-07-30T03:06:37.121Z,24.13
2022-07-30T03:09:52.346Z,22.40
2022-07-30T03:12:57.444Z,24.97
2022-07-30T03:16:04.630Z,25.77
2022-07-30T03:19:10.580Z,30.33
2022-07-30T03:22:15.678Z,27.97
2022-07-30T03:25:23.537Z,22.57
2022-07-30T03:28:27.814Z,24.30
2022-07-30T03:31:36.524Z,24.27
2022-07-30T03:34:42.508Z,27.63
2022-07-30T03:37:47.559Z,26.37
2022-07-30T03:40:51.249Z,23.03
2022-07-30T03:43:54.876Z,27.57
2022-07-30T03:47:01.189Z,28.57
2022-07-30T03:50:04.493Z,25.00
2022-07-30T03:53:09.270Z,26.47
2022-07-30T03:56:13.659Z,24.90
2022-07-30T03:59:17.115Z,29.50
2022-07-30T04:02:21.527Z,30.83
2022-07-30T04:05:24.606Z,26.20
2022-07-30T04:08:28.811Z,28.27
2022-07-30T04:11:40.628Z,31.50
2022-07-30T04:14:46.891Z,32.83
2022-07-30T04:17:56.061Z,29.90
2022-07-30T04:21:01.540Z,34.60
2022-07-30T04:24:05.904Z,35.23
2022-07-30T04:27:08.869Z,30.40
2022-07-30T04:30:12.737Z,33.20
2022-07-30T04:33:18.243Z,36.93
2022-07-30T04:36:20.981Z,39.30
2022-07-30T04:39:23.695Z,41.10
2022-07-30T04:42:27.281Z,39.87
2022-07-30T04:45:29.987Z,52.13
2022-07-30T04:48:34.191Z,45.53
2022-07-30T04:51:39.343Z,48.20
2022-07-30T04:54:45.703Z,48.67
2022-07-30T04:57:50.835Z,46.80
2022-07-30T05:00:56.711Z,45.80
2022-07-30T05:04:02.870Z,51.73
2022-07-30T05:07:07.876Z,52.97
2022-07-30T05:10:12.153Z,47.03
2022-07-30T05:13:16.679Z,46.10
2022-07-30T05:16:19.630Z,47.20
2022-07-30T05:19:25.584Z,51.70
2022-07-30T05:22:30.670Z,52.03
2022-07-30T05:25:33.403Z,41.00
2022-07-30T05:28:36.317Z,42.63
2022-07-30T05:31:40.390Z,51.63
2022-07-30T05:34:44.663Z,48.13
2022-07-30T05:37:53.343Z,47.53
2022-07-30T05:40:56.143Z,47.53
2022-07-30T05:43:58.871Z,39.67
2022-07-30T05:47:02.205Z,37.30
2022-07-30T05:50:07.668Z,35.13
2022-07-30T05:53:10.481Z,34.53
2022-07-30T05:56:13.295Z,32.20
2022-07-30T05:59:16.011Z,37.57
2022-07-30T06:02:18.712Z,35.10
2022-07-30T06:05:23.392Z,37.47
2022-07-30T06:08:26.050Z,36.23
2022-07-30T06:11:28.772Z,36.20
2022-07-30T06:14:32.101Z,31.17
2022-07-30T06:17:41.236Z,31.20
2022-07-30T06:20:46.418Z,35.30
2022-07-30T06:23:49.529Z,30.90
2022-07-30T06:26:52.265Z,33.70
2022-07-30T06:29:55.719Z,30.80
2022-07-30T06:32:58.392Z,26.77
2022-07-30T06:36:02.632Z,28.50
2022-07-30T06:39:05.550Z,30.30
2022-07-30T06:42:08.436Z,27.17
2022-07-30T06:45:12.169Z,26.27
2022-07-30T06:48:14.843Z,27.20
2022-07-30T06:51:19.120Z,24.60
2022-07-30T06:54:22.142Z,29.17
2022-07-30T06:57:24.784Z,24.43
2022-07-30T07:00:27.702Z,21.87
2022-07-30T07:03:39.749Z,26.83
2022-07-30T07:06:44.739Z,23.23
2022-07-30T07:09:47.395Z,22.77
2022-07-30T07:12:50.072Z,23.83
2022-07-30T07:15:52.751Z,21.10
2022-07-30T07:18:57.053Z,23.97
2022-07-30T07:22:01.046Z,21.50
2022-07-30T07:25:04.133Z,19.87
2022-07-30T07:28:11.130Z,21.60
2022-07-30T07:32:06.327Z,21.30
2022-07-30T07:34:38.714Z,17.67
2022-07-30T07:37:42.735Z,18.40
2022-07-30T07:40:45.815Z,19.10
2022-07-30T07:43:48.576Z,16.10
2022-07-30T07:46:51.418Z,17.53
2022-07-30T07:49:56.473Z,16.33
2022-07-30T07:53:00.707Z,15.33
2022-07-30T07:56:03.641Z,18.20
2022-07-30T07:59:06.940Z,16.00
2022-07-30T08:02:11.060Z,15.10
2022-07-30T08:05:14.006Z,14.10
2022-07-30T08:08:18.074Z,15.70
2022-07-30T08:11:20.856Z,16.10
2022-07-30T08:14:23.527Z,17.67
2022-07-30T08:17:26.616Z,14.13
2022-07-30T08:20:33.295Z,14.17
2022-07-30T08:23:42.153Z,16.53
2022-07-30T08:26:45.383Z,14.03
2022-07-30T08:29:48.125Z,13.43
2022-07-30T08:32:50.946Z,13.93
2022-07-30T08:35:57.235Z,14.40
2022-07-30T08:39:06.998Z,10.57
2022-07-30T08:42:10.011Z,12.27
2022-07-30T08:45:13.945Z,12.17
2022-07-30T08:48:19.714Z,12.83
2022-07-30T08:51:24.068Z,11.47
2022-07-30T08:54:28.259Z,11.83
2022-07-30T08:57:31.585Z,8.73
2022-07-30T09:00:34.518Z,13.63
2022-07-30T09:03:44.168Z,12.23
2022-07-30T09:06:47.283Z,14.47
2022-07-30T09:09:52.390Z,10.17
2022-07-30T09:12:55.018Z,9.30
2022-07-30T09:15:58.603Z,7.50
2022-07-30T09:19:13.104Z,12.37
2022-07-30T09:22:17.257Z,12.52
2022-07-30T09:25:41.260Z,10.00
2022-07-30T09:28:44.081Z,8.40
2022-07-30T09:31:57.940Z,9.47
2022-07-30T09:35:13.172Z,9.80
2022-07-30T09:38:15.835Z,9.93
2022-07-30T09:41:38.301Z,12.83
2022-07-30T09:44:41.934Z,12.17
2022-07-30T09:47:48.324Z,8.83
2022-07-30T09:50:52.341Z,8.30
2022-07-30T09:53:57.049Z,10.13
2022-07-30T09:57:22.709Z,7.47
2022-07-30T10:00:31.673Z,10.10
2022-07-30T10:03:42.024Z,7.30
2022-07-30T10:06:45.619Z,7.40
2022-07-30T10:09:50.084Z,8.77
2022-07-30T10:13:00.917Z,12.77
2022-07-30T10:16:04.328Z,16.73
2022-07-30T10:19:13.808Z,10.83
2022-07-30T10:22:21.592Z,49.43
2022-07-30T10:25:28.084Z,10.13
2022-07-30T10:28:37.024Z,8.80
2022-07-30T10:31:47.336Z,8.90
2022-07-30T10:34:52.655Z,10.23
2022-07-30T10:37:58.812Z,14.43
2022-07-30T10:41:08.693Z,20.57
2022-07-30T10:44:42.245Z,13.47
2022-07-30T10:47:48.820Z,12.83
2022-07-30T10:50:54.950Z,12.43
2022-07-30T10:53:59.409Z,10.83
2022-07-30T10:57:07.586Z,9.90
2022-07-30T11:00:17.752Z,11.30
2022-07-30T11:03:23.609Z,14.63
2022-07-30T11:06:44.017Z,11.73
2022-07-30T11:09:57.974Z,10.73
2022-07-30T11:13:09.805Z,15.67
2022-07-30T11:16:13.985Z,31.80
2022-07-30T11:19:54.975Z,8.00
2022-07-30T11:22:44.704Z,8.30
2022-07-30T11:25:50.317Z,10.67
2022-07-30T11:28:55.016Z,24.90
2022-07-30T11:32:00.944Z,80.13
2022-07-30T11:35:18.876Z,10.43
2022-07-30T11:38:22.255Z,7.37
2022-07-30T11:41:25.925Z,12.20
2022-07-30T11:44:30.568Z,7.50
2022-07-30T11:47:35.597Z,5.63
2022-07-30T11:50:39.103Z,5.50
2022-07-30T11:53:42.441Z,1.40
2022-07-30T11:56:52.853Z,5.83
2022-07-30T11:59:56.974Z,5.17
2022-07-30T12:03:03.984Z,20.83
2022-07-30T12:06:09.357Z,9.13
2022-07-30T12:09:13.001Z,5.90
2022-07-30T12:12:23.721Z,10.23
2022-07-30T12:15:31.686Z,5.43
2022-07-30T12:18:36.224Z,4.10
2022-07-30T12:21:39.190Z,3.57
2022-07-30T12:24:42.923Z,5.80
2022-07-30T12:27:51.820Z,18.83
2022-07-30T12:30:56.881Z,5.47
2022-07-30T12:34:01.432Z,5.33
2022-07-30T12:37:11.114Z,5.90
2022-07-30T12:40:16.647Z,5.20
2022-07-30T12:43:20.100Z,8.83
2022-07-30T12:46:24.313Z,8.27
2022-07-30T12:49:36.542Z,9.33
2022-07-30T12:52:49.086Z,4.63
2022-07-30T12:55:51.998Z,7.20
2022-07-30T12:58:56.927Z,5.10
2022-07-30T13:02:00.529Z,4.33
2022-07-30T13:05:11.702Z,16.97
2022-07-30T13:08:14.922Z,6.13
2022-07-30T13:11:19.136Z,5.33
2022-07-30T13:14:24.669Z,4.67
2022-07-30T13:17:29.921Z,3.53
2022-07-30T13:20:34.637Z,2.43
2022-07-30T13:23:38.814Z,3.13
2022-07-30T13:26:41.569Z,7.20
2022-07-30T13:29:44.227Z,5.20
2022-07-30T13:32:47.095Z,3.97
2022-07-30T13:35:51.502Z,7.77
2022-07-30T13:38:54.115Z,5.93
2022-07-30T13:41:56.800Z,2.80
2022-07-30T13:44:59.460Z,2.07
2022-07-30T13:48:02.465Z,2.47
2022-07-30T13:51:08.075Z,5.47
2022-07-30T13:54:10.771Z,3.87
2022-07-30T13:57:16.933Z,6.07
2022-07-30T14:00:19.929Z,3.37
2022-07-30T14:03:22.972Z,7.97
2022-07-30T14:06:27.168Z,2.10
2022-07-30T14:09:30.040Z,4.77
2022-07-30T14:12:33.049Z,6.27
2022-07-30T14:15:35.969Z,4.03
2022-07-30T14:18:38.850Z,4.10
2022-07-30T14:21:42.930Z,2.23
2022-07-30T14:24:48.762Z,3.87
2022-07-30T14:27:51.437Z,4.70
2022-07-30T14:30:54.930Z,6.20
2022-07-30T14:33:57.695Z,6.63
2022-07-30T14:37:02.004Z,3.53
2022-07-30T14:40:08.343Z,3.63
2022-07-30T14:43:11.127Z,5.25
2022-07-30T14:46:14.159Z,3.80
2022-07-30T14:49:17.240Z,3.93
2022-07-30T14:52:21.525Z,2.33
2022-07-30T14:55:24.497Z,4.23
2022-07-30T14:58:27.427Z,3.37
2022-07-30T15:01:30.715Z,1.43
2022-07-30T15:04:33.650Z,4.83
2022-07-30T15:07:40.300Z,2.53
2022-07-30T15:10:43.366Z,3.37
2022-07-30T15:13:50.051Z,2.90
2022-07-30T15:16:53.410Z,3.93
2022-07-30T15:19:56.111Z,3.60
2022-07-30T15:23:00.193Z,5.70
2022-07-30T15:26:03.397Z,3.77
2022-07-30T15:29:11.654Z,5.13
2022-07-30T15:32:17.329Z,3.33
2022-07-30T15:35:20.201Z,1.13
2022-07-30T15:38:24.577Z,2.00
2022-07-30T15:41:27.358Z,1.97
2022-07-30T15:44:30.369Z,3.77
2022-07-30T15:47:33.300Z,4.37
2022-07-30T15:50:36.129Z,2.80
2022-07-30T15:53:40.281Z,3.60
2022-07-30T15:56:44.037Z,3.30
2022-07-30T15:59:46.950Z,4.63
2022-07-30T16:02:50.953Z,4.50
2022-07-30T16:05:53.608Z,3.47
2022-07-30T16:08:58.124Z,4.60
2022-07-30T16:12:02.072Z,3.27
2022-07-30T16:15:08.417Z,4.83
2022-07-30T16:18:11.502Z,3.40
2022-07-30T16:21:14.305Z,3.23
2022-07-30T16:24:19.022Z,5.63
2022-07-30T16:27:22.193Z,2.87
2022-07-30T16:30:27.315Z,3.93
2022-07-30T16:33:30.648Z,5.60
2022-07-30T16:36:33.920Z,7.90
2022-07-30T16:39:38.169Z,3.63
2022-07-30T16:42:41.289Z,5.63
2022-07-30T16:45:44.710Z,6.30
2022-07-30T16:48:47.722Z,4.37
2022-07-30T16:51:54.220Z,2.60
2022-07-30T16:54:58.429Z,3.70
2022-07-30T16:58:01.615Z,5.10
2022-07-30T17:01:04.963Z,5.00
2022-07-30T17:04:07.869Z,5.37
2022-07-30T17:07:10.678Z,4.07
2022-07-30T17:10:14.937Z,4.77
2022-07-30T17:13:28.785Z,3.80
2022-07-30T17:16:32.628Z,59.07
2022-07-30T17:19:35.557Z,31.63
2022-07-30T17:22:42.853Z,4.50
2022-07-30T17:25:47.161Z,3.87
2022-07-30T17:28:49.979Z,5.27
2022-07-30T17:31:52.698Z,5.07
2022-07-30T17:34:58.452Z,3.03
2022-07-30T17:38:01.084Z,3.47
2022-07-30T17:41:05.428Z,3.70
2022-07-30T17:44:08.722Z,3.20
2022-07-30T17:47:14.696Z,3.90
2022-07-30T17:50:18.911Z,7.40
2022-07-30T17:53:21.653Z,7.77
2022-07-30T17:56:26.944Z,3.30
2022-07-30T17:59:30.090Z,3.73
2022-07-30T18:02:33.199Z,6.60
2022-07-30T18:05:35.964Z,3.33
2022-07-30T18:08:38.684Z,2.90
2022-07-30T18:11:42.965Z,6.03
2022-07-30T18:14:45.674Z,4.80
2022-07-30T18:17:48.515Z,4.07
2022-07-30T18:20:51.435Z,4.90
2022-07-30T18:23:54.086Z,6.63
2022-07-30T18:26:59.608Z,4.57
2022-07-30T18:30:03.076Z,4.43
2022-07-30T18:33:09.161Z,7.00
2022-07-30T18:36:12.041Z,8.47
2022-07-30T18:39:14.680Z,7.03
2022-07-30T18:42:18.725Z,4.30
2022-07-30T18:45:22.720Z,9.43
2022-07-30T18:48:26.255Z,8.37
2022-07-30T18:51:28.919Z,6.10
2022-07-30T18:54:32.075Z,5.80
2022-07-30T18:57:36.298Z,4.63
2022-07-30T19:00:42.790Z,4.97
2022-07-30T19:03:45.617Z,6.70
2022-07-30T19:06:48.364Z,4.30
2022-07-30T19:09:55.286Z,4.83
2022-07-30T19:12:59.771Z,3.00
2022-07-30T19:16:02.476Z,5.27
2022-07-30T19:19:05.350Z,4.43
2022-07-30T19:22:08.313Z,3.67
2022-07-30T19:25:11.810Z,5.57
2022-07-30T19:28:17.765Z,5.17
2022-07-30T19:31:20.959Z,3.30
2022-07-30T19:34:23.736Z,4.67
2022-07-30T19:37:26.487Z,3.50
2022-07-30T19:40:29.277Z,4.83
2022-07-30T19:43:35.212Z,4.37
2022-07-30T19:46:41.342Z,5.13
2022-07-30T19:49:44.286Z,4.40
2022-07-30T19:52:50.942Z,4.77
2022-07-30T19:55:54.572Z,5.30
2022-07-30T19:59:00.239Z,5.27
2022-07-30T20:02:03.641Z,3.67
2022-07-30T20:05:11.073Z,3.53
2022-07-30T20:08:15.307Z,4.97
2022-07-30T20:11:21.364Z,7.03
2022-07-30T20:14:43.243Z,5.63
2022-07-30T20:17:47.053Z,4.47
2022-07-30T20:20:49.818Z,4.73
2022-07-30T20:23:54.529Z,9.27
2022-07-30T20:26:57.623Z,3.57
2022-07-30T20:30:01.716Z,4.40
2022-07-30T20:33:04.614Z,4.77
2022-07-30T20:36:09.756Z,4.67
2022-07-30T20:39:13.541Z,6.17
2022-07-30T20:42:21.920Z,4.30
2022-07-30T20:45:38.038Z,3.57
2022-07-30T20:48:43.262Z,7.07
2022-07-30T20:51:50.443Z,8.40
2022-07-30T20:54:53.186Z,5.73
2022-07-30T20:58:07.946Z,8.80
2022-07-30T21:01:18.860Z,11.23
2022-07-30T21:04:23.891Z,4.10
2022-07-30T21:07:36.516Z,6.10
2022-07-30T21:10:40.977Z,6.33
2022-07-30T21:13:48.049Z,4.53
2022-07-30T21:16:55.988Z,4.13
2022-07-30T21:19:59.676Z,3.60
2022-07-30T21:23:05.435Z,5.20
2022-07-30T21:26:13.453Z,4.37
2022-07-30T21:29:17.719Z,7.37
2022-07-30T21:32:22.295Z,5.17
2022-07-30T21:35:31.755Z,7.03
2022-07-30T21:38:35.414Z,7.53
2022-07-30T21:41:40.925Z,11.17
2022-07-30T21:44:43.741Z,7.33
2022-07-30T21:47:50.880Z,5.67
2022-07-30T21:50:55.503Z,4.83
2022-07-30T21:53:58.268Z,6.30
2022-07-30T21:57:01.662Z,4.27
2022-07-30T22:00:10.022Z,8.77
2022-07-30T22:04:02.885Z,6.20
2022-07-30T22:06:39.834Z,9.00
2022-07-30T22:09:42.635Z,5.03
2022-07-30T22:12:45.333Z,6.20
2022-07-30T22:15:48.193Z,7.90
2022-07-30T22:18:53.182Z,4.70
2022-07-30T22:21:55.948Z,5.07
2022-07-30T22:25:00.076Z,6.87
2022-07-30T22:28:03.501Z,5.63
2022-07-30T22:31:10.016Z,4.67
2022-07-30T22:34:18.329Z,4.97
2022-07-30T22:37:22.339Z,7.53
2022-07-30T22:40:25.237Z,6.30
2022-07-30T22:46:56.140Z,7.07
2022-07-30T22:50:01.547Z,6.37
2022-07-30T22:53:23.711Z,4.70
2022-07-30T22:56:27.678Z,8.00
2022-07-30T22:59:59.835Z,5.87
2022-07-30T23:02:53.492Z,7.43
2022-07-30T23:06:00.455Z,3.90
2022-07-30T23:09:03.992Z,5.07
2022-07-30T23:12:07.600Z,5.63
2022-07-30T23:12:32.684Z,5.63
2022-07-30T23:15:11.534Z,14.53
2022-07-30T23:18:15.855Z,7.10
2022-07-30T23:21:20.904Z,6.63
2022-07-30T23:24:23.592Z,7.23
2022-07-30T23:27:26.720Z,5.73
2022-07-30T23:30:30.010Z,7.63
2022-07-30T23:33:36.735Z,7.83
2022-07-30T23:36:40.740Z,6.80
2022-07-30T23:39:43.869Z,6.50
2022-07-30T23:42:47.269Z,9.50
2022-07-30T23:45:50.214Z,5.87
2022-07-30T23:48:53.406Z,5.50
2022-07-30T23:51:57.568Z,7.43
2022-07-30T23:55:01.388Z,7.17
2022-07-30T23:58:06.015Z,7.67
